Impacts TAF Board INFO
FOR SITUATIONAL AWARENESS. NOT TO BE USED FOR FLIGHT PLANNING PURPOSES.
IDs:

KGPT - Gulfport-Biloxi Intl, MS, US

Issued at 1741 UTC 15 Aug 2018
Updated at 2044 UTC 15 Aug 2018
Potential Impact None Slight Moderate High
Time<<16/09Z 16/10Z 16/11Z 16/12Z 16/13Z 16/14Z 16/15Z 16/16Z 16/17Z 16/18Z 16/19Z 16/20Z 16/21Z>>
Type PRVL PRVL PRVL PRVL PRVL PRVL PRVL PRVL PRVL
VIS >6 >6 >6 >6 >6 >6 >6 >6 >6
CIG -- -- -- -- -- -- -- -- --
Cover SCT SCT SCT SCT SCT SCT SCT SCT SCT
FltCat VFR VFR VFR VFR VFR VFR VFR VFR VFR
WX -- -- -- -- -- -- -- -- --
WDir 160 160 160 160 160 300 300 300 300
WSpd 3 3 3 3 3 4 4 4 4
WGst -- -- -- -- -- -- -- -- --

Raw TAF
KGPT 151741Z 1518/1618 15009KT P6SM VCTS FEW025CB
  FM152100 17007KT P6SM FEW040
  FM160100 16003KT P6SM SCT250
  FM161400 30004KT P6SM SCT250


METAR Board
Radar Display
Forecast Discussion

FOR SITUATIONAL AWARENESS. NOT TO BE USED FOR FLIGHT PLANNING PURPOSES.